Puerto Ordaz, Venezuela
Current Conditions -  °F | °C
As of 10:00 PM on Wednesday 22 Oct 2014 (Local Time) from SVCU Reporting Station
Clear Clear  
Wind Chill: 82°   Ceiling: Unl
Heat Index: 87°   Visibility: 6mi
Dew Point: 72°   Wind: 6mph
Humidity: 70%   Direction: 160°SSE
Pressure: 29.83"   Gusts: NA
Location:  8.32°N, 62.72°W
Report Text: SVCU 230200Z 16005KT CAVOK 28/22 Q1010
Loading
Personal Weather Stations






























Interactive Weather Map
Tropical Storm Tracking
New forecast layout! Learn more

10-Day Weather Forecast

Advertisements
Track Severe Weather on mobile